Terminal Aerodrome Forecast
Issued by NWS

Home | Current Version | Previous Version | Text Only | Print | Product List | Glossary On
Versions: 1 2 3 4 5 6 7 8 9 10 11 12
000
FTUS45 KRIW 271100
TAFRKS
TAF
KRKS 271128Z 2712/2812 24011KT P6SM SCT018 BKN050
     FM271700 24020G28KT P6SM SCT025 BKN060
     FM280900 24018G28KT 5SM -SN BKN025=

USA.gov is the U.S. government's official web portal to all federal, state and local government web resources and services.